createdAt,value
2023-03-14T00:02:00.974Z,13.20
2023-03-14T00:04:29.236Z,15.20
2023-03-14T00:06:57.430Z,16.70
2023-03-14T00:09:27.592Z,17.70
2023-03-14T00:11:55.708Z,15.20
2023-03-14T00:14:24.383Z,13.80
2023-03-14T00:16:52.556Z,16.70
2023-03-14T00:19:20.961Z,15.90
2023-03-14T00:21:49.308Z,14.70
2023-03-14T00:24:17.716Z,15.00
2023-03-14T00:26:46.108Z,16.20
2023-03-14T00:29:14.436Z,16.70
2023-03-14T00:31:42.708Z,19.10
2023-03-14T00:34:10.879Z,15.90
2023-03-14T00:36:39.292Z,14.20
2023-03-14T00:39:08.006Z,15.00
2023-03-14T00:41:36.215Z,14.80
2023-03-14T00:44:04.456Z,16.00
2023-03-14T00:46:32.879Z,17.10
2023-03-14T00:49:01.178Z,14.00
2023-03-14T00:51:29.284Z,16.30
2023-03-14T00:53:57.622Z,13.90
2023-03-14T00:56:25.975Z,15.10
2023-03-14T00:58:56.758Z,15.70
2023-03-14T01:01:25.916Z,15.30
2023-03-14T01:03:55.921Z,15.90
2023-03-14T01:06:26.622Z,15.90
2023-03-14T01:08:57.111Z,14.50
2023-03-14T01:11:34.131Z,15.20
2023-03-14T01:14:03.581Z,14.80
2023-03-14T01:16:34.393Z,14.00
2023-03-14T01:19:03.599Z,14.80
2023-03-14T01:21:34.730Z,14.40
2023-03-14T01:24:05.787Z,14.10
2023-03-14T01:26:35.904Z,13.90
2023-03-14T01:29:05.395Z,14.20
2023-03-14T01:31:35.051Z,16.30
2023-03-14T01:34:03.570Z,12.80
2023-03-14T01:36:31.985Z,13.40
2023-03-14T01:39:02.971Z,13.80
2023-03-14T01:41:31.293Z,13.60
2023-03-14T01:44:00.285Z,15.30
2023-03-14T01:46:46.743Z,11.80
2023-03-14T01:49:32.956Z,10.70
2023-03-14T01:52:13.882Z,18.10
2023-03-14T01:54:45.549Z,15.50
2023-03-14T02:00:26.902Z,11.80
2023-03-14T02:03:03.408Z,11.90
2023-03-14T02:05:36.143Z,12.20
2023-03-14T02:08:12.548Z,14.40
2023-03-14T02:10:49.178Z,11.10
2023-03-14T02:13:21.434Z,13.80
2023-03-14T02:16:15.932Z,14.10
2023-03-14T02:18:44.227Z,10.80
2023-03-14T02:21:58.782Z,13.60
2023-03-14T02:24:43.981Z,14.00
2023-03-14T02:27:16.673Z,11.00
2023-03-14T02:29:57.588Z,11.90
2023-03-14T02:32:28.733Z,12.40
2023-03-14T02:35:00.066Z,11.50
2023-03-14T02:37:38.030Z,11.70
2023-03-14T02:40:06.927Z,12.40
2023-03-14T02:42:35.288Z,11.40
2023-03-14T02:45:10.361Z,11.50
2023-03-14T02:47:49.168Z,16.70
2023-03-14T02:50:21.712Z,13.40
2023-03-14T02:52:49.945Z,14.50
2023-03-14T02:55:25.223Z,14.00
2023-03-14T02:57:54.600Z,11.50
2023-03-14T03:00:23.285Z,11.00
2023-03-14T03:02:52.291Z,11.70
2023-03-14T03:05:20.785Z,10.70
2023-03-14T03:07:48.919Z,11.80
2023-03-14T03:10:17.699Z,12.90
2023-03-14T03:12:46.186Z,11.40
2023-03-14T03:15:14.376Z,12.00
2023-03-14T03:17:42.587Z,13.40
2023-03-14T03:20:11.213Z,13.10
2023-03-14T03:22:40.954Z,14.00
2023-03-14T03:25:12.437Z,12.60
2023-03-14T03:27:40.769Z,11.70
2023-03-14T03:30:10.779Z,13.10
2023-03-14T03:32:38.987Z,10.50
2023-03-14T03:35:07.851Z,11.40
2023-03-14T03:37:38.123Z,12.40
2023-03-14T03:40:09.323Z,14.20
2023-03-14T03:42:37.980Z,10.20
2023-03-14T03:45:09.178Z,10.70
2023-03-14T03:47:40.350Z,12.10
2023-03-14T03:50:09.668Z,9.80
2023-03-14T03:52:37.849Z,12.10
2023-03-14T03:55:06.555Z,10.90
2023-03-14T03:57:34.892Z,9.60
2023-03-14T04:00:06.081Z,8.50
2023-03-14T04:02:42.412Z,8.70
2023-03-14T04:05:14.881Z,11.40
2023-03-14T04:07:50.012Z,10.30
2023-03-14T04:10:23.515Z,8.00
2023-03-14T04:13:05.626Z,10.10
2023-03-14T04:15:36.007Z,7.70
2023-03-14T04:18:10.355Z,10.90
2023-03-14T04:20:38.519Z,10.20
2023-03-14T04:23:06.990Z,8.90
2023-03-14T04:25:35.279Z,10.00
2023-03-14T04:28:06.384Z,12.20
2023-03-14T04:30:35.251Z,8.70
2023-03-14T04:33:24.154Z,9.70
2023-03-14T04:35:55.689Z,10.60
2023-03-14T04:38:24.235Z,8.10
2023-03-14T04:40:53.633Z,7.20
2023-03-14T04:43:24.409Z,10.40
2023-03-14T04:45:58.189Z,7.60
2023-03-14T04:48:27.725Z,7.70
2023-03-14T04:50:56.276Z,8.40
2023-03-14T04:53:24.851Z,7.70
2023-03-14T04:55:56.756Z,10.80
2023-03-14T04:58:27.273Z,8.40
2023-03-14T05:00:57.337Z,11.00
2023-03-14T05:03:51.963Z,7.40
2023-03-14T05:06:43.464Z,7.90
2023-03-14T05:09:27.732Z,11.00
2023-03-14T05:12:22.056Z,9.70
2023-03-14T05:14:58.241Z,10.70
2023-03-14T05:17:53.263Z,13.80
2023-03-14T05:20:45.220Z,14.00
2023-03-14T05:23:36.568Z,18.40
2023-03-14T05:26:18.096Z,20.00
2023-03-14T05:29:06.585Z,17.90
2023-03-14T05:31:57.874Z,21.50
2023-03-14T05:34:41.707Z,20.80
2023-03-14T05:37:32.624Z,17.20
2023-03-14T05:40:21.157Z,20.20
2023-03-14T05:42:59.811Z,19.90
2023-03-14T05:45:55.266Z,14.40
2023-03-14T05:48:29.310Z,13.80
2023-03-14T05:51:10.286Z,19.30
2023-03-14T05:53:47.242Z,18.70
2023-03-14T05:56:41.631Z,11.80
2023-03-14T05:59:16.303Z,17.10
2023-03-14T06:01:58.602Z,16.40
2023-03-14T06:04:28.259Z,15.10
2023-03-14T06:06:58.661Z,16.90
2023-03-14T06:09:27.179Z,17.20
2023-03-14T06:11:57.429Z,14.40
2023-03-14T06:14:26.209Z,12.30
2023-03-14T06:16:55.062Z,13.80
2023-03-14T06:19:24.738Z,12.10
2023-03-14T06:21:53.021Z,10.50
2023-03-14T06:24:21.568Z,10.90
2023-03-14T06:26:50.786Z,11.00
2023-03-14T06:29:18.922Z,10.60
2023-03-14T06:31:47.271Z,8.60
2023-03-14T06:34:17.055Z,10.40
2023-03-14T06:36:45.445Z,8.60
2023-03-14T06:39:13.727Z,9.30
2023-03-14T06:41:44.744Z,9.10
2023-03-14T06:44:13.037Z,10.20
2023-03-14T06:46:41.272Z,10.50
2023-03-14T06:49:09.614Z,9.70
2023-03-14T06:51:38.189Z,10.00
2023-03-14T06:54:06.690Z,10.80
2023-03-14T06:56:34.884Z,10.50
2023-03-14T06:59:03.116Z,14.50
2023-03-14T07:01:33.970Z,10.00
2023-03-14T07:04:11.252Z,11.50
2023-03-14T07:06:45.351Z,10.40
2023-03-14T07:09:14.314Z,10.00
2023-03-14T07:11:46.452Z,11.90
2023-03-14T07:14:14.690Z,9.70
2023-03-14T07:16:42.895Z,10.70
2023-03-14T07:19:11.066Z,11.30
2023-03-14T07:21:39.403Z,9.50
2023-03-14T07:24:09.757Z,11.70
2023-03-14T07:26:38.037Z,10.40
2023-03-14T07:29:06.932Z,10.40
2023-03-14T07:31:35.192Z,9.70
2023-03-14T07:34:04.198Z,9.30
2023-03-14T07:36:36.179Z,10.60
2023-03-14T07:39:05.373Z,9.30
2023-03-14T07:41:39.063Z,11.30
2023-03-14T07:44:26.171Z,9.40
2023-03-14T07:46:54.638Z,12.20
2023-03-14T07:49:22.903Z,11.50
2023-03-14T07:51:51.302Z,10.40
2023-03-14T07:54:21.125Z,8.90
2023-03-14T07:56:49.319Z,8.10
2023-03-14T07:59:17.843Z,12.40
2023-03-14T08:01:45.963Z,11.70
2023-03-14T08:04:14.166Z,11.40
2023-03-14T08:06:42.341Z,9.90
2023-03-14T08:09:10.766Z,11.10
2023-03-14T08:11:39.283Z,12.80
2023-03-14T08:14:08.006Z,10.20
2023-03-14T08:16:36.176Z,11.60
2023-03-14T08:19:04.707Z,12.20
2023-03-14T08:21:32.818Z,10.50
2023-03-14T08:24:01.810Z,8.70
2023-03-14T08:26:30.680Z,8.20
2023-03-14T08:28:59.125Z,11.50
2023-03-14T08:31:27.415Z,10.70
2023-03-14T08:33:56.156Z,11.80
2023-03-14T08:36:24.424Z,10.30
2023-03-14T08:38:52.764Z,9.00
2023-03-14T08:41:21.114Z,8.70
2023-03-14T08:43:49.565Z,8.30
2023-03-14T08:46:17.907Z,11.00
2023-03-14T08:48:46.325Z,12.00
2023-03-14T08:51:15.723Z,11.50
2023-03-14T08:53:44.500Z,10.00
2023-03-14T08:56:12.685Z,12.00
2023-03-14T08:58:42.489Z,12.30
2023-03-14T09:01:11.964Z,9.50
2023-03-14T09:03:40.556Z,12.30
2023-03-14T09:06:11.197Z,11.80
2023-03-14T09:08:39.937Z,11.30
2023-03-14T09:11:09.795Z,11.10
2023-03-14T09:13:38.842Z,10.50
2023-03-14T09:16:07.857Z,10.80
2023-03-14T09:18:36.368Z,12.40
2023-03-14T09:21:04.792Z,14.20
2023-03-14T09:23:34.009Z,10.30
2023-03-14T09:26:02.160Z,10.60
2023-03-14T09:28:30.394Z,12.70
2023-03-14T09:30:59.184Z,10.10
2023-03-14T09:33:27.621Z,11.80
2023-03-14T09:35:59.722Z,9.70
2023-03-14T09:38:29.138Z,10.80
2023-03-14T09:40:59.915Z,11.30
2023-03-14T09:43:32.696Z,10.00
2023-03-14T09:46:04.098Z,11.40
2023-03-14T09:48:35.173Z,10.20
2023-03-14T09:51:08.728Z,10.70
2023-03-14T09:53:48.684Z,9.60
2023-03-14T09:56:27.898Z,11.10
2023-03-14T09:58:59.381Z,11.00
2023-03-14T10:01:33.190Z,10.60
2023-03-14T10:04:11.619Z,11.50
2023-03-14T10:06:39.865Z,13.90
2023-03-14T10:09:18.496Z,11.30
2023-03-14T10:11:46.755Z,11.90
2023-03-14T10:14:30.348Z,10.20
2023-03-14T10:17:07.571Z,12.20
2023-03-14T10:19:36.840Z,10.30
2023-03-14T10:22:07.146Z,10.40
2023-03-14T10:24:36.597Z,11.70
2023-03-14T10:27:20.218Z,12.10
2023-03-14T10:29:59.866Z,12.70
2023-03-14T10:32:37.883Z,9.10
2023-03-14T10:35:15.131Z,11.30
2023-03-14T10:38:17.665Z,10.90
2023-03-14T10:40:54.210Z,10.00
2023-03-14T10:43:29.506Z,13.80
2023-03-14T10:46:02.454Z,13.20
2023-03-14T10:48:33.251Z,14.70
2023-03-14T10:51:07.590Z,12.00
2023-03-14T10:53:56.412Z,12.00
2023-03-14T10:56:26.865Z,14.10
2023-03-14T10:58:58.428Z,15.90
2023-03-14T11:01:42.048Z,15.20
2023-03-14T11:04:33.098Z,17.40
2023-03-14T11:07:08.672Z,10.10
2023-03-14T11:10:02.057Z,13.70
2023-03-14T11:12:33.501Z,12.70
2023-03-14T11:15:26.781Z,11.10
2023-03-14T11:18:19.884Z,14.50
2023-03-14T11:21:04.129Z,8.60
2023-03-14T11:24:09.850Z,9.40
2023-03-14T11:27:13.777Z,12.60
2023-03-14T11:30:03.923Z,8.60
2023-03-14T11:32:51.194Z,9.30
2023-03-14T11:35:29.866Z,11.90
2023-03-14T11:38:11.663Z,17.20
2023-03-14T11:40:41.120Z,11.70
2023-03-14T11:43:09.364Z,12.50
2023-03-14T11:45:41.089Z,11.00
2023-03-14T11:48:46.888Z,11.40
2023-03-14T11:51:24.446Z,11.70
2023-03-14T11:54:05.937Z,12.60
2023-03-14T11:56:54.265Z,18.90
2023-03-14T11:59:46.750Z,8.00
2023-03-14T12:02:22.214Z,11.50
2023-03-14T12:05:19.228Z,12.80
2023-03-14T12:08:09.230Z,11.20
2023-03-14T12:10:46.523Z,12.10
2023-03-14T12:13:17.893Z,11.90
2023-03-14T12:15:59.853Z,11.20
2023-03-14T12:18:30.514Z,12.90
2023-03-14T12:21:13.733Z,12.00
2023-03-14T12:23:45.797Z,13.00
2023-03-14T12:26:13.895Z,12.50
2023-03-14T12:28:51.571Z,13.40
2023-03-14T12:31:31.780Z,9.90
2023-03-14T12:34:12.324Z,8.70
2023-03-14T12:36:57.405Z,8.60
2023-03-14T12:39:48.432Z,10.30
2023-03-14T12:42:44.600Z,8.80
2023-03-14T12:45:13.336Z,11.00
2023-03-14T12:47:52.451Z,11.10
2023-03-14T12:50:26.946Z,10.90
2023-03-14T12:53:24.576Z,17.10
2023-03-14T12:56:03.766Z,12.50
2023-03-14T12:59:08.093Z,11.60
2023-03-14T13:01:36.878Z,14.10
2023-03-14T13:04:11.482Z,13.20
2023-03-14T13:07:11.955Z,9.30
2023-03-14T13:10:12.409Z,8.00
2023-03-14T13:12:58.751Z,11.20
2023-03-14T13:15:40.673Z,9.10
2023-03-14T13:18:27.954Z,14.40
2023-03-14T13:21:00.614Z,7.10
2023-03-14T13:23:32.403Z,6.60
2023-03-14T13:26:01.971Z,7.00
2023-03-14T13:28:32.039Z,9.40
2023-03-14T13:31:03.812Z,6.90
2023-03-14T13:33:34.471Z,10.20
2023-03-14T13:36:06.214Z,8.20
2023-03-14T13:38:37.138Z,13.10
2023-03-14T13:41:07.924Z,10.80
2023-03-14T13:43:44.552Z,7.70
2023-03-14T13:46:21.030Z,9.10
2023-03-14T13:48:54.477Z,10.00
2023-03-14T13:51:23.593Z,10.00
2023-03-14T13:54:14.205Z,10.00
2023-03-14T13:56:42.664Z,12.60
2023-03-14T13:59:23.944Z,8.00
2023-03-14T14:01:54.632Z,8.70
2023-03-14T14:04:26.450Z,8.90
2023-03-14T14:07:00.338Z,8.10
2023-03-14T14:09:31.985Z,8.10
2023-03-14T14:12:16.857Z,10.30
2023-03-14T14:15:21.075Z,8.40
2023-03-14T14:17:58.659Z,5.70
2023-03-14T14:20:35.909Z,7.40
2023-03-14T14:23:07.588Z,5.50
2023-03-14T14:25:36.046Z,7.10
2023-03-14T14:28:24.815Z,4.90
2023-03-14T14:31:25.272Z,7.10
2023-03-14T14:34:04.454Z,5.20
2023-03-14T14:36:45.738Z,7.90
2023-03-14T14:39:27.321Z,6.00
2023-03-14T14:41:55.840Z,9.70
2023-03-14T14:44:32.791Z,7.90
2023-03-14T14:47:04.723Z,9.30
2023-03-14T14:49:34.473Z,8.60
2023-03-14T14:52:16.061Z,11.00
2023-03-14T14:54:47.686Z,9.00
2023-03-14T15:13:28.146Z,9.20
2023-03-14T15:23:44.617Z,10.50
2023-03-14T15:26:17.034Z,10.20
2023-03-14T15:28:47.039Z,10.50
2023-03-14T15:31:16.683Z,9.30
2023-03-14T15:33:46.794Z,8.40
2023-03-14T15:36:28.158Z,12.20
2023-03-14T15:38:59.056Z,9.90
2023-03-14T15:41:29.123Z,6.50
2023-03-14T15:43:57.328Z,9.90
2023-03-14T15:46:25.792Z,11.30
2023-03-14T15:48:54.167Z,10.30
2023-03-14T15:51:22.448Z,11.60
2023-03-14T15:53:50.829Z,13.60
2023-03-14T15:56:21.145Z,10.50
2023-03-14T15:58:49.515Z,17.00
2023-03-14T16:01:17.876Z,13.60
2023-03-14T16:03:46.440Z,11.90
2023-03-14T16:06:15.081Z,13.90
2023-03-14T16:08:45.972Z,11.30
2023-03-14T16:11:16.000Z,15.50
2023-03-14T16:13:45.021Z,17.80
2023-03-14T16:16:13.557Z,14.20
2023-03-14T16:18:41.890Z,11.00
2023-03-14T16:21:15.972Z,15.30
2023-03-14T16:23:44.859Z,12.10
2023-03-14T16:26:15.995Z,17.70
2023-03-14T16:28:45.533Z,15.30
2023-03-14T16:31:19.370Z,13.00
2023-03-14T16:33:47.659Z,12.20
2023-03-14T16:36:15.959Z,15.30
2023-03-14T16:38:45.658Z,16.00
2023-03-14T16:41:17.038Z,11.80
2023-03-14T16:43:45.974Z,11.70
2023-03-14T16:46:18.298Z,10.00
2023-03-14T16:48:46.594Z,9.00
2023-03-14T16:51:16.639Z,10.90
2023-03-14T16:53:45.813Z,10.90
2023-03-14T16:56:15.012Z,10.50
2023-03-14T16:58:44.044Z,11.50
2023-03-14T17:01:14.508Z,10.00
2023-03-14T17:03:47.204Z,9.10
2023-03-14T17:06:18.640Z,10.10
2023-03-14T17:08:46.873Z,11.10
2023-03-14T17:11:15.284Z,13.80
2023-03-14T17:13:44.045Z,11.50
2023-03-14T17:16:12.866Z,13.00
2023-03-14T17:18:41.066Z,14.20
2023-03-14T17:21:09.538Z,12.70
2023-03-14T17:23:37.712Z,13.20
2023-03-14T17:26:06.046Z,15.50
2023-03-14T17:28:34.576Z,15.60
2023-03-14T17:31:12.925Z,15.00
2023-03-14T17:33:41.244Z,13.70
2023-03-14T17:36:11.398Z,11.70
2023-03-14T17:38:40.056Z,13.00
2023-03-14T17:41:11.140Z,14.10
2023-03-14T17:43:39.831Z,15.10
2023-03-14T17:46:15.226Z,12.30
2023-03-14T17:48:45.952Z,14.50
2023-03-14T17:51:15.315Z,16.30
2023-03-14T17:53:43.941Z,13.40
2023-03-14T17:56:12.811Z,12.90
2023-03-14T17:58:44.376Z,14.40
2023-03-14T18:01:20.076Z,13.20
2023-03-14T18:03:48.430Z,14.60
2023-03-14T18:06:17.879Z,13.20
2023-03-14T18:08:46.879Z,12.70
2023-03-14T18:11:15.953Z,15.60
2023-03-14T18:13:44.223Z,18.80
2023-03-14T18:16:16.907Z,20.30
2023-03-14T18:18:48.673Z,16.10
2023-03-14T18:21:17.877Z,14.90
2023-03-14T18:23:46.243Z,15.50
2023-03-14T18:26:14.406Z,16.10
2023-03-14T18:28:42.614Z,15.70
2023-03-14T18:31:13.503Z,13.10
2023-03-14T18:33:42.628Z,16.80
2023-03-14T18:36:12.242Z,16.80
2023-03-14T18:38:43.784Z,14.00
2023-03-14T18:41:14.731Z,17.80
2023-03-14T18:43:43.733Z,14.80
2023-03-14T18:46:13.032Z,19.50
2023-03-14T18:48:44.038Z,19.40
2023-03-14T18:51:16.193Z,19.40
2023-03-14T18:53:45.790Z,16.60
2023-03-14T18:56:14.421Z,14.80
2023-03-14T18:58:43.020Z,16.40
2023-03-14T19:01:12.650Z,15.40
2023-03-14T19:03:42.398Z,15.60
2023-03-14T19:06:12.230Z,19.80
2023-03-14T19:08:42.420Z,19.00
2023-03-14T19:11:12.828Z,19.00
2023-03-14T19:13:42.212Z,19.10
2023-03-14T19:16:15.848Z,16.00
2023-03-14T19:18:44.474Z,15.70
2023-03-14T19:21:14.461Z,16.40
2023-03-14T19:23:44.245Z,14.90
2023-03-14T19:26:12.345Z,16.80
2023-03-14T19:28:40.477Z,20.00
2023-03-14T19:31:08.655Z,20.10
2023-03-14T19:33:37.660Z,19.60
2023-03-14T19:36:06.285Z,18.90
2023-03-14T19:38:34.481Z,19.10
2023-03-14T19:41:02.615Z,19.40
2023-03-14T19:43:30.963Z,17.10
2023-03-14T19:45:59.506Z,16.50
2023-03-14T19:48:30.626Z,17.60
2023-03-14T19:51:02.886Z,17.40
2023-03-14T19:53:31.596Z,16.40
2023-03-14T19:55:59.692Z,20.20
2023-03-14T19:58:27.959Z,20.80
2023-03-14T20:00:57.040Z,21.30
2023-03-14T20:03:25.367Z,18.20
2023-03-14T20:05:53.970Z,19.30
2023-03-14T20:08:23.193Z,18.00
2023-03-14T20:10:51.420Z,21.30
2023-03-14T20:13:22.343Z,22.70
2023-03-14T20:15:53.275Z,19.30
2023-03-14T20:18:23.401Z,19.30
2023-03-14T20:20:52.360Z,17.60
2023-03-14T20:23:20.702Z,16.90
2023-03-14T20:25:59.407Z,17.50
2023-03-14T20:28:27.499Z,14.10
2023-03-14T20:30:55.708Z,10.70
2023-03-14T20:33:24.649Z,6.30
2023-03-14T20:35:57.806Z,5.90
2023-03-14T20:38:27.647Z,6.50
2023-03-14T20:40:57.470Z,7.20
2023-03-14T20:43:26.242Z,7.30
2023-03-14T20:45:59.506Z,6.50
2023-03-14T20:48:30.326Z,7.00
2023-03-14T20:50:58.935Z,7.60
2023-03-14T20:53:27.283Z,5.70
2023-03-14T20:55:57.552Z,5.60
2023-03-14T20:58:25.844Z,5.50
2023-03-14T21:00:56.255Z,6.70
2023-03-14T21:03:25.059Z,2.90
2023-03-14T21:05:53.268Z,6.30
2023-03-14T21:08:23.658Z,5.80
2023-03-14T21:10:53.937Z,8.20
2023-03-14T21:13:22.993Z,6.70
2023-03-14T21:15:51.141Z,5.80
2023-03-14T21:18:20.357Z,7.30
2023-03-14T21:20:48.376Z,6.50
2023-03-14T21:23:17.956Z,6.40
2023-03-14T21:25:47.425Z,5.40
2023-03-14T21:28:15.535Z,5.10
2023-03-14T21:30:43.813Z,6.50
2023-03-14T21:33:13.469Z,5.70
2023-03-14T21:35:42.082Z,7.50
2023-03-14T21:38:10.151Z,6.00
2023-03-14T21:40:38.473Z,3.80
2023-03-14T21:43:06.605Z,10.30
2023-03-14T21:45:35.884Z,5.60
2023-03-14T21:48:04.117Z,6.90
2023-03-14T21:50:32.195Z,10.60
2023-03-14T21:53:00.213Z,3.20
2023-03-14T21:55:28.251Z,7.80
2023-03-14T21:57:57.209Z,5.00
2023-03-14T22:00:26.208Z,5.10
2023-03-14T22:03:13.968Z,4.10
2023-03-14T22:05:44.195Z,8.00
2023-03-14T22:08:14.570Z,7.60
2023-03-14T22:10:47.233Z,6.50
2023-03-14T22:13:15.790Z,6.40
2023-03-14T22:15:46.035Z,5.00
2023-03-14T22:18:15.897Z,7.40
2023-03-14T22:20:44.886Z,7.30
2023-03-14T22:23:13.601Z,5.90
2023-03-14T22:25:43.667Z,4.50
2023-03-14T22:28:11.805Z,6.10
2023-03-14T22:30:39.860Z,8.20
2023-03-14T22:33:08.157Z,5.20
2023-03-14T22:35:36.397Z,7.40
2023-03-14T22:38:04.453Z,10.80
2023-03-14T22:40:32.683Z,7.80
2023-03-14T22:43:00.737Z,5.90
2023-03-14T22:45:28.804Z,5.70
2023-03-14T22:47:57.696Z,8.20
2023-03-14T22:50:25.876Z,7.70
2023-03-14T22:52:54.854Z,5.90
2023-03-14T22:55:22.988Z,5.00
2023-03-14T22:57:52.942Z,10.50
2023-03-14T23:00:21.319Z,7.70
2023-03-14T23:02:49.903Z,9.70
2023-03-14T23:05:18.059Z,13.00
2023-03-14T23:07:46.132Z,13.60
2023-03-14T23:10:14.190Z,13.30
2023-03-14T23:12:45.906Z,8.10
2023-03-14T23:15:17.802Z,6.20
2023-03-14T23:17:46.472Z,6.00
2023-03-14T23:20:15.223Z,6.60
2023-03-14T23:22:43.319Z,9.30
2023-03-14T23:25:12.321Z,8.00
2023-03-14T23:27:46.245Z,8.10
2023-03-14T23:30:15.511Z,4.20
2023-03-14T23:32:43.772Z,6.80
2023-03-14T23:35:12.961Z,5.00
2023-03-14T23:37:41.030Z,7.90
2023-03-14T23:40:10.586Z,11.80
2023-03-14T23:42:38.987Z,5.60
2023-03-14T23:45:07.840Z,6.30
2023-03-14T23:47:35.845Z,5.40
2023-03-14T23:50:04.262Z,6.70
2023-03-14T23:52:32.363Z,5.50
2023-03-14T23:55:00.588Z,6.50
2023-03-14T23:57:28.666Z,5.10
2023-03-14T23:59:56.682Z,7.70
